sensor_id;sensor_type;location;lat;lon;timestamp;temperature;humidity
6664;DHT22;58749;48.022;10.922;2022-08-01T00:01:15;21.60;80.90
6664;DHT22;58749;48.022;10.922;2022-08-01T00:03:43;21.60;80.50
6664;DHT22;58749;48.022;10.922;2022-08-01T00:06:13;21.60;80.50
6664;DHT22;58749;48.022;10.922;2022-08-01T00:08:41;21.60;80.60
6664;DHT22;58749;48.022;10.922;2022-08-01T00:11:09;21.60;80.50
6664;DHT22;58749;48.022;10.922;2022-08-01T00:13:37;21.60;80.60
6664;DHT22;58749;48.022;10.922;2022-08-01T00:16:05;21.50;80.70
6664;DHT22;58749;48.022;10.922;2022-08-01T00:18:33;21.50;80.90
6664;DHT22;58749;48.022;10.922;2022-08-01T00:21:02;21.50;82.00
6664;DHT22;58749;48.022;10.922;2022-08-01T00:23:31;21.40;81.40
6664;DHT22;58749;48.022;10.922;2022-08-01T00:26:00;21.40;81.90
6664;DHT22;58749;48.022;10.922;2022-08-01T00:28:28;21.30;82.10
6664;DHT22;58749;48.022;10.922;2022-08-01T00:30:56;21.30;82.30
6664;DHT22;58749;48.022;10.922;2022-08-01T00:33:24;21.20;82.40
6664;DHT22;58749;48.022;10.922;2022-08-01T00:35:52;21.30;82.60
6664;DHT22;58749;48.022;10.922;2022-08-01T00:38:20;21.20;82.60
6664;DHT22;58749;48.022;10.922;2022-08-01T00:40:50;21.20;83.40
6664;DHT22;58749;48.022;10.922;2022-08-01T00:43:18;21.20;82.80
6664;DHT22;58749;48.022;10.922;2022-08-01T00:45:46;21.20;83.00
6664;DHT22;58749;48.022;10.922;2022-08-01T00:48:14;21.20;83.00
6664;DHT22;58749;48.022;10.922;2022-08-01T00:50:42;21.20;83.10
6664;DHT22;58749;48.022;10.922;2022-08-01T00:53:10;21.20;83.10
6664;DHT22;58749;48.022;10.922;2022-08-01T00:55:44;21.10;83.40
6664;DHT22;58749;48.022;10.922;2022-08-01T00:58:14;21.10;83.60
6664;DHT22;58749;48.022;10.922;2022-08-01T01:00:43;21.00;84.40
6664;DHT22;58749;48.022;10.922;2022-08-01T01:03:20;21.00;83.70
6664;DHT22;58749;48.022;10.922;2022-08-01T01:06:11;21.00;83.80
6664;DHT22;58749;48.022;10.922;2022-08-01T01:08:43;20.90;83.90
6664;DHT22;58749;48.022;10.922;2022-08-01T01:11:19;20.90;83.90
6664;DHT22;58749;48.022;10.922;2022-08-01T01:13:54;20.90;84.00
6664;DHT22;58749;48.022;10.922;2022-08-01T01:16:25;20.90;84.20
6664;DHT22;58749;48.022;10.922;2022-08-01T01:18:56;20.80;84.40
6664;DHT22;58749;48.022;10.922;2022-08-01T01:21:39;20.80;84.30
6664;DHT22;58749;48.022;10.922;2022-08-01T01:24:21;20.90;84.50
6664;DHT22;58749;48.022;10.922;2022-08-01T01:26:59;20.80;84.60
6664;DHT22;58749;48.022;10.922;2022-08-01T01:29:32;20.80;84.60
6664;DHT22;58749;48.022;10.922;2022-08-01T01:32:26;20.70;84.70
6664;DHT22;58749;48.022;10.922;2022-08-01T01:35:02;20.70;84.70
6664;DHT22;58749;48.022;10.922;2022-08-01T01:37:33;20.80;84.60
6664;DHT22;58749;48.022;10.922;2022-08-01T01:40:02;20.80;84.60
6664;DHT22;58749;48.022;10.922;2022-08-01T01:42:32;20.80;84.30
6664;DHT22;58749;48.022;10.922;2022-08-01T01:45:04;20.70;84.60
6664;DHT22;58749;48.022;10.922;2022-08-01T01:47:33;20.70;84.60
6664;DHT22;58749;48.022;10.922;2022-08-01T01:50:03;20.60;84.80
6664;DHT22;58749;48.022;10.922;2022-08-01T01:52:33;20.60;84.90
6664;DHT22;58749;48.022;10.922;2022-08-01T01:55:06;20.50;85.30
6664;DHT22;58749;48.022;10.922;2022-08-01T01:57:37;20.50;85.50
6664;DHT22;58749;48.022;10.922;2022-08-01T02:00:09;20.50;85.70
6664;DHT22;58749;48.022;10.922;2022-08-01T02:02:39;20.50;85.50
6664;DHT22;58749;48.022;10.922;2022-08-01T02:05:10;20.50;85.60
6664;DHT22;58749;48.022;10.922;2022-08-01T02:07:39;20.50;85.70
6664;DHT22;58749;48.022;10.922;2022-08-01T02:10:15;20.50;85.80
6664;DHT22;58749;48.022;10.922;2022-08-01T02:12:46;20.50;86.00
6664;DHT22;58749;48.022;10.922;2022-08-01T02:15:18;20.50;86.00
6664;DHT22;58749;48.022;10.922;2022-08-01T02:17:48;20.50;85.80
6664;DHT22;58749;48.022;10.922;2022-08-01T02:20:17;20.40;86.00
6664;DHT22;58749;48.022;10.922;2022-08-01T02:22:48;20.40;86.10
6664;DHT22;58749;48.022;10.922;2022-08-01T02:25:22;20.40;86.20
6664;DHT22;58749;48.022;10.922;2022-08-01T02:27:55;20.40;86.20
6664;DHT22;58749;48.022;10.922;2022-08-01T02:30:27;20.40;86.30
6664;DHT22;58749;48.022;10.922;2022-08-01T02:33:01;20.40;86.30
6664;DHT22;58749;48.022;10.922;2022-08-01T02:35:30;20.40;86.50
6664;DHT22;58749;48.022;10.922;2022-08-01T02:38:01;20.30;86.60
6664;DHT22;58749;48.022;10.922;2022-08-01T02:40:32;20.30;87.00
6664;DHT22;58749;48.022;10.922;2022-08-01T02:43:02;20.20;86.90
6664;DHT22;58749;48.022;10.922;2022-08-01T02:45:35;20.30;87.10
6664;DHT22;58749;48.022;10.922;2022-08-01T02:48:07;20.30;87.10
6664;DHT22;58749;48.022;10.922;2022-08-01T02:50:37;20.30;86.80
6664;DHT22;58749;48.022;10.922;2022-08-01T02:53:06;20.30;86.90
6664;DHT22;58749;48.022;10.922;2022-08-01T02:55:38;20.30;86.70
6664;DHT22;58749;48.022;10.922;2022-08-01T02:58:09;20.20;86.80
6664;DHT22;58749;48.022;10.922;2022-08-01T03:00:41;20.10;86.80
6664;DHT22;58749;48.022;10.922;2022-08-01T03:03:15;20.10;86.90
6664;DHT22;58749;48.022;10.922;2022-08-01T03:05:45;20.10;87.00
6664;DHT22;58749;48.022;10.922;2022-08-01T03:08:14;20.10;87.10
6664;DHT22;58749;48.022;10.922;2022-08-01T03:10:44;20.10;86.90
6664;DHT22;58749;48.022;10.922;2022-08-01T03:13:14;20.10;86.70
6664;DHT22;58749;48.022;10.922;2022-08-01T03:15:44;20.00;86.90
6664;DHT22;58749;48.022;10.922;2022-08-01T03:18:14;20.00;86.70
6664;DHT22;58749;48.022;10.922;2022-08-01T03:20:43;20.00;86.90
6664;DHT22;58749;48.022;10.922;2022-08-01T03:23:28;20.00;86.70
6664;DHT22;58749;48.022;10.922;2022-08-01T03:26:05;20.00;86.80
6664;DHT22;58749;48.022;10.922;2022-08-01T03:28:33;20.00;86.70
6664;DHT22;58749;48.022;10.922;2022-08-01T03:31:05;20.10;86.90
6664;DHT22;58749;48.022;10.922;2022-08-01T03:33:33;20.10;86.80
6664;DHT22;58749;48.022;10.922;2022-08-01T03:36:02;20.00;86.80
6664;DHT22;58749;48.022;10.922;2022-08-01T03:38:33;20.00;86.80
6664;DHT22;58749;48.022;10.922;2022-08-01T03:41:09;20.00;87.10
6664;DHT22;58749;48.022;10.922;2022-08-01T03:43:39;19.90;87.30
6664;DHT22;58749;48.022;10.922;2022-08-01T03:46:12;19.90;87.30
6664;DHT22;58749;48.022;10.922;2022-08-01T03:48:45;19.90;87.20
6664;DHT22;58749;48.022;10.922;2022-08-01T03:51:15;19.80;87.30
6664;DHT22;58749;48.022;10.922;2022-08-01T03:53:45;19.80;87.50
6664;DHT22;58749;48.022;10.922;2022-08-01T03:56:18;19.70;87.90
6664;DHT22;58749;48.022;10.922;2022-08-01T03:58:47;19.70;88.20
6664;DHT22;58749;48.022;10.922;2022-08-01T04:01:18;19.70;87.90
6664;DHT22;58749;48.022;10.922;2022-08-01T04:03:46;19.70;88.10
6664;DHT22;58749;48.022;10.922;2022-08-01T04:06:14;19.70;87.90
6664;DHT22;58749;48.022;10.922;2022-08-01T04:08:43;19.70;87.80
6664;DHT22;58749;48.022;10.922;2022-08-01T04:11:23;19.60;87.80
6664;DHT22;58749;48.022;10.922;2022-08-01T04:13:53;19.60;88.00
6664;DHT22;58749;48.022;10.922;2022-08-01T04:16:24;19.60;88.20
6664;DHT22;58749;48.022;10.922;2022-08-01T04:18:53;19.70;88.00
6664;DHT22;58749;48.022;10.922;2022-08-01T04:21:24;19.70;87.70
6664;DHT22;58749;48.022;10.922;2022-08-01T04:23:58;19.70;87.50
6664;DHT22;58749;48.022;10.922;2022-08-01T04:26:27;19.70;87.50
6664;DHT22;58749;48.022;10.922;2022-08-01T04:28:58;19.70;87.70
6664;DHT22;58749;48.022;10.922;2022-08-01T04:31:30;19.70;87.80
6664;DHT22;58749;48.022;10.922;2022-08-01T04:33:59;19.60;87.60
6664;DHT22;58749;48.022;10.922;2022-08-01T04:36:30;19.70;87.70
6664;DHT22;58749;48.022;10.922;2022-08-01T04:39:02;19.60;88.00
6664;DHT22;58749;48.022;10.922;2022-08-01T04:41:32;19.60;88.10
6664;DHT22;58749;48.022;10.922;2022-08-01T04:44:02;19.60;87.80
6664;DHT22;58749;48.022;10.922;2022-08-01T04:46:34;19.70;87.60
6664;DHT22;58749;48.022;10.922;2022-08-01T04:49:04;19.70;87.60
6664;DHT22;58749;48.022;10.922;2022-08-01T04:51:34;19.70;87.50
6664;DHT22;58749;48.022;10.922;2022-08-01T04:54:02;19.80;87.50
6664;DHT22;58749;48.022;10.922;2022-08-01T04:56:30;19.70;87.50
6664;DHT22;58749;48.022;10.922;2022-08-01T04:59:00;19.70;87.60
6664;DHT22;58749;48.022;10.922;2022-08-01T05:01:49;19.60;88.00
6664;DHT22;58749;48.022;10.922;2022-08-01T05:04:20;19.70;88.20
6664;DHT22;58749;48.022;10.922;2022-08-01T05:06:50;19.60;88.40
6664;DHT22;58749;48.022;10.922;2022-08-01T05:09:18;19.60;88.50
6664;DHT22;58749;48.022;10.922;2022-08-01T05:11:47;19.70;88.50
6664;DHT22;58749;48.022;10.922;2022-08-01T05:14:15;19.70;88.40
6664;DHT22;58749;48.022;10.922;2022-08-01T05:16:44;19.70;88.30
6664;DHT22;58749;48.022;10.922;2022-08-01T05:19:14;19.70;88.30
6664;DHT22;58749;48.022;10.922;2022-08-01T05:21:44;19.70;88.30
6664;DHT22;58749;48.022;10.922;2022-08-01T05:24:12;19.70;88.40
6664;DHT22;58749;48.022;10.922;2022-08-01T05:26:42;19.70;88.70
6664;DHT22;58749;48.022;10.922;2022-08-01T05:29:10;19.70;89.00
6664;DHT22;58749;48.022;10.922;2022-08-01T05:31:38;19.70;89.20
6664;DHT22;58749;48.022;10.922;2022-08-01T05:34:07;19.70;89.40
6664;DHT22;58749;48.022;10.922;2022-08-01T05:36:42;19.70;89.30
6664;DHT22;58749;48.022;10.922;2022-08-01T05:39:14;19.70;89.00
6664;DHT22;58749;48.022;10.922;2022-08-01T05:41:43;19.70;89.80
6664;DHT22;58749;48.022;10.922;2022-08-01T05:44:12;19.70;89.70
6664;DHT22;58749;48.022;10.922;2022-08-01T05:46:40;19.70;90.00
6664;DHT22;58749;48.022;10.922;2022-08-01T05:49:09;19.80;89.20
6664;DHT22;58749;48.022;10.922;2022-08-01T05:51:37;19.90;89.20
6664;DHT22;58749;48.022;10.922;2022-08-01T05:54:07;20.00;89.20
6664;DHT22;58749;48.022;10.922;2022-08-01T05:56:35;20.00;89.10
6664;DHT22;58749;48.022;10.922;2022-08-01T05:59:03;20.10;89.30
6664;DHT22;58749;48.022;10.922;2022-08-01T06:01:31;20.20;89.40
6664;DHT22;58749;48.022;10.922;2022-08-01T06:04:00;20.30;89.80
6664;DHT22;58749;48.022;10.922;2022-08-01T06:06:28;20.40;89.30
6664;DHT22;58749;48.022;10.922;2022-08-01T06:08:56;20.50;89.10
6664;DHT22;58749;48.022;10.922;2022-08-01T06:11:25;20.60;89.00
6664;DHT22;58749;48.022;10.922;2022-08-01T06:13:53;20.60;89.10
6664;DHT22;58749;48.022;10.922;2022-08-01T06:16:22;20.60;90.00
6664;DHT22;58749;48.022;10.922;2022-08-01T06:18:50;20.60;89.60
6664;DHT22;58749;48.022;10.922;2022-08-01T06:21:22;20.70;89.30
6664;DHT22;58749;48.022;10.922;2022-08-01T06:23:50;20.70;89.80
6664;DHT22;58749;48.022;10.922;2022-08-01T06:26:19;20.80;89.60
6664;DHT22;58749;48.022;10.922;2022-08-01T06:28:49;20.80;89.30
6664;DHT22;58749;48.022;10.922;2022-08-01T06:31:17;20.90;89.00
6664;DHT22;58749;48.022;10.922;2022-08-01T06:33:45;20.90;89.00
6664;DHT22;58749;48.022;10.922;2022-08-01T06:36:13;21.00;89.50
6664;DHT22;58749;48.022;10.922;2022-08-01T06:38:42;21.00;88.50
6664;DHT22;58749;48.022;10.922;2022-08-01T06:41:17;21.10;88.20
6664;DHT22;58749;48.022;10.922;2022-08-01T06:43:45;21.20;88.50
6664;DHT22;58749;48.022;10.922;2022-08-01T06:46:15;21.20;89.00
6664;DHT22;58749;48.022;10.922;2022-08-01T06:48:47;21.20;90.10
6664;DHT22;58749;48.022;10.922;2022-08-01T06:51:16;21.30;89.70
6664;DHT22;58749;48.022;10.922;2022-08-01T06:53:47;21.30;89.70
6664;DHT22;58749;48.022;10.922;2022-08-01T06:56:15;21.30;90.00
6664;DHT22;58749;48.022;10.922;2022-08-01T06:58:43;21.40;88.50
6664;DHT22;58749;48.022;10.922;2022-08-01T07:01:11;21.50;87.60
6664;DHT22;58749;48.022;10.922;2022-08-01T07:03:45;21.50;86.80
6664;DHT22;58749;48.022;10.922;2022-08-01T07:06:22;21.50;87.50
6664;DHT22;58749;48.022;10.922;2022-08-01T07:08:50;21.60;87.70
6664;DHT22;58749;48.022;10.922;2022-08-01T07:11:18;21.60;88.70
6664;DHT22;58749;48.022;10.922;2022-08-01T07:13:46;21.70;87.60
6664;DHT22;58749;48.022;10.922;2022-08-01T07:16:15;21.70;86.40
6664;DHT22;58749;48.022;10.922;2022-08-01T07:18:45;21.80;87.00
6664;DHT22;58749;48.022;10.922;2022-08-01T07:21:13;21.90;89.00
6664;DHT22;58749;48.022;10.922;2022-08-01T07:24:01;21.90;86.40
6664;DHT22;58749;48.022;10.922;2022-08-01T07:26:39;22.00;88.20
6664;DHT22;58749;48.022;10.922;2022-08-01T07:29:20;22.00;87.10
6664;DHT22;58749;48.022;10.922;2022-08-01T07:31:51;22.10;88.00
6664;DHT22;58749;48.022;10.922;2022-08-01T07:34:25;22.10;87.70
6664;DHT22;58749;48.022;10.922;2022-08-01T07:36:54;22.20;85.90
6664;DHT22;58749;48.022;10.922;2022-08-01T07:39:22;22.30;86.10
6664;DHT22;58749;48.022;10.922;2022-08-01T07:41:51;22.30;85.90
6664;DHT22;58749;48.022;10.922;2022-08-01T07:44:34;22.40;84.40
6664;DHT22;58749;48.022;10.922;2022-08-01T07:47:02;22.40;85.10
6664;DHT22;58749;48.022;10.922;2022-08-01T07:49:32;22.40;85.70
6664;DHT22;58749;48.022;10.922;2022-08-01T07:52:07;22.50;86.10
6664;DHT22;58749;48.022;10.922;2022-08-01T07:54:35;22.60;86.50
6664;DHT22;58749;48.022;10.922;2022-08-01T07:57:03;22.60;84.90
6664;DHT22;58749;48.022;10.922;2022-08-01T07:59:32;22.70;84.20
6664;DHT22;58749;48.022;10.922;2022-08-01T08:02:01;22.70;85.20
6664;DHT22;58749;48.022;10.922;2022-08-01T08:04:32;22.80;87.00
6664;DHT22;58749;48.022;10.922;2022-08-01T08:07:01;22.80;88.40
6664;DHT22;58749;48.022;10.922;2022-08-01T08:09:30;22.90;88.80
6664;DHT22;58749;48.022;10.922;2022-08-01T08:12:05;22.90;87.60
6664;DHT22;58749;48.022;10.922;2022-08-01T08:14:35;23.00;88.50
6664;DHT22;58749;48.022;10.922;2022-08-01T08:17:05;23.10;85.40
6664;DHT22;58749;48.022;10.922;2022-08-01T08:19:35;23.10;82.60
6664;DHT22;58749;48.022;10.922;2022-08-01T08:22:07;23.20;86.30
6664;DHT22;58749;48.022;10.922;2022-08-01T08:24:37;23.20;84.00
6664;DHT22;58749;48.022;10.922;2022-08-01T08:27:12;23.30;83.90
6664;DHT22;58749;48.022;10.922;2022-08-01T08:29:41;23.30;82.30
6664;DHT22;58749;48.022;10.922;2022-08-01T08:32:10;23.40;81.70
6664;DHT22;58749;48.022;10.922;2022-08-01T08:34:40;23.40;80.20
6664;DHT22;58749;48.022;10.922;2022-08-01T08:37:08;23.40;79.60
6664;DHT22;58749;48.022;10.922;2022-08-01T08:39:37;23.50;81.70
6664;DHT22;58749;48.022;10.922;2022-08-01T08:42:15;23.50;81.50
6664;DHT22;58749;48.022;10.922;2022-08-01T08:44:43;23.60;83.80
6664;DHT22;58749;48.022;10.922;2022-08-01T08:47:13;23.70;80.90
6664;DHT22;58749;48.022;10.922;2022-08-01T08:49:51;23.70;81.30
6664;DHT22;58749;48.022;10.922;2022-08-01T08:52:22;23.70;81.70
6664;DHT22;58749;48.022;10.922;2022-08-01T08:54:51;23.80;81.60
6664;DHT22;58749;48.022;10.922;2022-08-01T08:57:20;23.80;82.30
6664;DHT22;58749;48.022;10.922;2022-08-01T08:59:50;23.90;83.30
6664;DHT22;58749;48.022;10.922;2022-08-01T09:02:22;23.90;79.40
6664;DHT22;58749;48.022;10.922;2022-08-01T09:04:51;24.00;78.30
6664;DHT22;58749;48.022;10.922;2022-08-01T09:07:20;24.10;78.60
6664;DHT22;58749;48.022;10.922;2022-08-01T09:09:50;24.10;77.60
6664;DHT22;58749;48.022;10.922;2022-08-01T09:12:18;24.20;81.00
6664;DHT22;58749;48.022;10.922;2022-08-01T09:14:48;24.30;79.30
6664;DHT22;58749;48.022;10.922;2022-08-01T09:17:20;24.40;79.10
6664;DHT22;58749;48.022;10.922;2022-08-01T09:19:51;24.50;77.10
6664;DHT22;58749;48.022;10.922;2022-08-01T09:22:22;24.60;78.00
6664;DHT22;58749;48.022;10.922;2022-08-01T09:24:59;24.60;74.80
6664;DHT22;58749;48.022;10.922;2022-08-01T09:27:28;24.70;75.20
6664;DHT22;58749;48.022;10.922;2022-08-01T09:30:08;24.70;77.50
6664;DHT22;58749;48.022;10.922;2022-08-01T09:32:52;24.80;76.40
6664;DHT22;58749;48.022;10.922;2022-08-01T09:35:28;24.70;76.60
6664;DHT22;58749;48.022;10.922;2022-08-01T09:38:25;24.80;75.80
6664;DHT22;58749;48.022;10.922;2022-08-01T09:40:58;24.80;79.00
6664;DHT22;58749;48.022;10.922;2022-08-01T09:43:29;24.90;78.50
6664;DHT22;58749;48.022;10.922;2022-08-01T09:45:59;25.10;77.50
6664;DHT22;58749;48.022;10.922;2022-08-01T09:48:27;25.10;75.90
6664;DHT22;58749;48.022;10.922;2022-08-01T09:50:58;25.10;76.10
6664;DHT22;58749;48.022;10.922;2022-08-01T09:53:40;25.20;78.00
6664;DHT22;58749;48.022;10.922;2022-08-01T09:56:18;25.30;74.60
6664;DHT22;58749;48.022;10.922;2022-08-01T09:58:52;25.40;74.80
6664;DHT22;58749;48.022;10.922;2022-08-01T10:01:27;25.40;75.30
6664;DHT22;58749;48.022;10.922;2022-08-01T10:04:06;25.40;74.80
6664;DHT22;58749;48.022;10.922;2022-08-01T10:06:39;25.50;73.30
6664;DHT22;58749;48.022;10.922;2022-08-01T10:09:10;25.50;77.50
6664;DHT22;58749;48.022;10.922;2022-08-01T10:11:40;25.50;76.80
6664;DHT22;58749;48.022;10.922;2022-08-01T10:14:12;25.50;75.80
6664;DHT22;58749;48.022;10.922;2022-08-01T10:16:45;25.40;74.70
6664;DHT22;58749;48.022;10.922;2022-08-01T10:19:22;25.50;76.00
6664;DHT22;58749;48.022;10.922;2022-08-01T10:21:56;25.60;76.20
6664;DHT22;58749;48.022;10.922;2022-08-01T10:24:28;25.70;75.30
6664;DHT22;58749;48.022;10.922;2022-08-01T10:27:02;25.80;71.70
6664;DHT22;58749;48.022;10.922;2022-08-01T10:29:39;25.90;74.20
6664;DHT22;58749;48.022;10.922;2022-08-01T10:32:27;26.00;76.50
6664;DHT22;58749;48.022;10.922;2022-08-01T10:34:57;26.10;74.10
6664;DHT22;58749;48.022;10.922;2022-08-01T10:37:52;26.20;72.80
6664;DHT22;58749;48.022;10.922;2022-08-01T10:40:27;26.20;74.30
6664;DHT22;58749;48.022;10.922;2022-08-01T10:43:02;26.30;70.90
6664;DHT22;58749;48.022;10.922;2022-08-01T10:45:31;26.40;74.40
6664;DHT22;58749;48.022;10.922;2022-08-01T10:48:06;26.40;70.90
6664;DHT22;58749;48.022;10.922;2022-08-01T10:50:41;26.30;70.90
6664;DHT22;58749;48.022;10.922;2022-08-01T10:53:17;26.30;72.50
6664;DHT22;58749;48.022;10.922;2022-08-01T10:56:02;26.30;73.60
6664;DHT22;58749;48.022;10.922;2022-08-01T10:59:00;26.50;70.20
6664;DHT22;58749;48.022;10.922;2022-08-01T11:01:58;26.70;69.40
6664;DHT22;58749;48.022;10.922;2022-08-01T11:04:51;26.80;69.20
6664;DHT22;58749;48.022;10.922;2022-08-01T11:07:48;26.80;68.70
6664;DHT22;58749;48.022;10.922;2022-08-01T11:10:33;26.70;69.40
6664;DHT22;58749;48.022;10.922;2022-08-01T11:13:06;26.80;68.30
6664;DHT22;58749;48.022;10.922;2022-08-01T11:15:35;26.90;66.20
6664;DHT22;58749;48.022;10.922;2022-08-01T11:18:32;26.90;66.50
6664;DHT22;58749;48.022;10.922;2022-08-01T11:21:04;27.10;66.20
6664;DHT22;58749;48.022;10.922;2022-08-01T11:23:53;27.10;68.50
6664;DHT22;58749;48.022;10.922;2022-08-01T11:26:25;27.00;67.10
6664;DHT22;58749;48.022;10.922;2022-08-01T11:29:15;26.80;66.90
6664;DHT22;58749;48.022;10.922;2022-08-01T11:31:50;26.60;69.70
6664;DHT22;58749;48.022;10.922;2022-08-01T11:34:51;26.50;70.60
6664;DHT22;58749;48.022;10.922;2022-08-01T11:37:25;26.50;71.20
6664;DHT22;58749;48.022;10.922;2022-08-01T11:40:16;26.70;69.10
6664;DHT22;58749;48.022;10.922;2022-08-01T11:42:46;26.80;68.10
6664;DHT22;58749;48.022;10.922;2022-08-01T11:45:16;26.80;66.50
6664;DHT22;58749;48.022;10.922;2022-08-01T11:47:46;26.60;69.70
6664;DHT22;58749;48.022;10.922;2022-08-01T11:50:35;26.50;69.60
6664;DHT22;58749;48.022;10.922;2022-08-01T11:53:11;26.50;70.80
6664;DHT22;58749;48.022;10.922;2022-08-01T11:55:45;26.50;70.40
6664;DHT22;58749;48.022;10.922;2022-08-01T11:58:23;26.50;71.50
6664;DHT22;58749;48.022;10.922;2022-08-01T12:00:57;26.60;71.60
6664;DHT22;58749;48.022;10.922;2022-08-01T12:03:32;26.70;70.00
6664;DHT22;58749;48.022;10.922;2022-08-01T12:06:00;26.80;68.50
6664;DHT22;58749;48.022;10.922;2022-08-01T12:08:29;26.80;64.90
6664;DHT22;58749;48.022;10.922;2022-08-01T12:11:00;26.70;67.70
6664;DHT22;58749;48.022;10.922;2022-08-01T12:13:39;26.80;64.60
6664;DHT22;58749;48.022;10.922;2022-08-01T12:16:09;26.80;64.20
6664;DHT22;58749;48.022;10.922;2022-08-01T12:18:38;26.90;64.30
6664;DHT22;58749;48.022;10.922;2022-08-01T12:21:07;26.90;66.00
6664;DHT22;58749;48.022;10.922;2022-08-01T12:23:35;27.00;65.60
6664;DHT22;58749;48.022;10.922;2022-08-01T12:26:03;27.10;66.90
6664;DHT22;58749;48.022;10.922;2022-08-01T12:28:39;27.20;65.50
6664;DHT22;58749;48.022;10.922;2022-08-01T12:33:38;27.30;65.70
6664;DHT22;58749;48.022;10.922;2022-08-01T12:36:26;27.20;64.40
6664;DHT22;58749;48.022;10.922;2022-08-01T12:39:04;27.20;64.20
6664;DHT22;58749;48.022;10.922;2022-08-01T12:41:35;27.30;63.70
6664;DHT22;58749;48.022;10.922;2022-08-01T12:44:13;27.40;63.20
6664;DHT22;58749;48.022;10.922;2022-08-01T12:46:42;27.50;62.60
6664;DHT22;58749;48.022;10.922;2022-08-01T12:49:10;27.60;60.80
6664;DHT22;58749;48.022;10.922;2022-08-01T12:51:40;27.80;61.70
6664;DHT22;58749;48.022;10.922;2022-08-01T12:54:22;27.90;60.80
6664;DHT22;58749;48.022;10.922;2022-08-01T12:57:02;28.10;61.40
6664;DHT22;58749;48.022;10.922;2022-08-01T12:59:39;28.20;60.20
6664;DHT22;58749;48.022;10.922;2022-08-01T13:02:10;28.40;64.50
6664;DHT22;58749;48.022;10.922;2022-08-01T13:04:49;28.60;61.10
6664;DHT22;58749;48.022;10.922;2022-08-01T13:07:19;28.70;60.60
6664;DHT22;58749;48.022;10.922;2022-08-01T13:09:52;28.70;58.40
6664;DHT22;58749;48.022;10.922;2022-08-01T13:12:25;28.80;61.60
6664;DHT22;58749;48.022;10.922;2022-08-01T13:14:56;28.80;58.50
6664;DHT22;58749;48.022;10.922;2022-08-01T13:17:34;28.80;57.60
6664;DHT22;58749;48.022;10.922;2022-08-01T13:20:31;28.70;58.20
6664;DHT22;58749;48.022;10.922;2022-08-01T13:23:15;28.60;59.80
6664;DHT22;58749;48.022;10.922;2022-08-01T13:26:04;28.60;58.60
6664;DHT22;58749;48.022;10.922;2022-08-01T13:28:35;28.60;57.00
6664;DHT22;58749;48.022;10.922;2022-08-01T13:31:09;28.70;58.20
6664;DHT22;58749;48.022;10.922;2022-08-01T13:34:08;28.80;57.20
6664;DHT22;58749;48.022;10.922;2022-08-01T13:36:42;28.80;56.30
6664;DHT22;58749;48.022;10.922;2022-08-01T13:39:16;28.90;55.40
6664;DHT22;58749;48.022;10.922;2022-08-01T13:42:05;29.00;57.30
6664;DHT22;58749;48.022;10.922;2022-08-01T13:44:47;28.80;57.70
6664;DHT22;58749;48.022;10.922;2022-08-01T13:47:16;28.60;59.60
6664;DHT22;58749;48.022;10.922;2022-08-01T13:49:56;28.20;63.40
6664;DHT22;58749;48.022;10.922;2022-08-01T13:52:35;27.80;62.70
6664;DHT22;58749;48.022;10.922;2022-08-01T13:55:05;27.30;63.60
6664;DHT22;58749;48.022;10.922;2022-08-01T13:57:36;27.00;65.90
6664;DHT22;58749;48.022;10.922;2022-08-01T14:00:07;26.80;66.80
6664;DHT22;58749;48.022;10.922;2022-08-01T14:02:37;26.80;68.80
6664;DHT22;58749;48.022;10.922;2022-08-01T14:05:06;27.00;67.70
6664;DHT22;58749;48.022;10.922;2022-08-01T14:07:34;27.00;68.60
6664;DHT22;58749;48.022;10.922;2022-08-01T14:10:04;26.90;67.10
6664;DHT22;58749;48.022;10.922;2022-08-01T14:12:46;26.90;68.30
6664;DHT22;58749;48.022;10.922;2022-08-01T14:15:14;26.80;70.10
6664;DHT22;58749;48.022;10.922;2022-08-01T14:18:05;26.60;69.80
6664;DHT22;58749;48.022;10.922;2022-08-01T14:20:35;26.50;70.60
6664;DHT22;58749;48.022;10.922;2022-08-01T14:23:03;26.20;72.80
6664;DHT22;58749;48.022;10.922;2022-08-01T14:25:35;25.90;74.90
6664;DHT22;58749;48.022;10.922;2022-08-01T14:28:23;25.70;75.70
6664;DHT22;58749;48.022;10.922;2022-08-01T14:30:52;25.50;77.60
6664;DHT22;58749;48.022;10.922;2022-08-01T14:33:23;25.50;79.00
6664;DHT22;58749;48.022;10.922;2022-08-01T14:35:52;25.40;78.80
6664;DHT22;58749;48.022;10.922;2022-08-01T14:38:40;25.30;78.90
6664;DHT22;58749;48.022;10.922;2022-08-01T14:41:12;25.20;78.30
6664;DHT22;58749;48.022;10.922;2022-08-01T14:43:40;25.00;79.80
6664;DHT22;58749;48.022;10.922;2022-08-01T14:46:08;24.90;80.40
6664;DHT22;58749;48.022;10.922;2022-08-01T14:48:38;24.70;80.90
6664;DHT22;58749;48.022;10.922;2022-08-01T14:51:06;24.60;82.00
6664;DHT22;58749;48.022;10.922;2022-08-01T14:53:34;24.50;82.80
6664;DHT22;58749;48.022;10.922;2022-08-01T14:56:03;24.40;84.60
6664;DHT22;58749;48.022;10.922;2022-08-01T14:58:32;24.20;84.60
6664;DHT22;58749;48.022;10.922;2022-08-01T15:01:00;24.10;86.40
6664;DHT22;58749;48.022;10.922;2022-08-01T15:03:29;23.90;87.10
6664;DHT22;58749;48.022;10.922;2022-08-01T15:05:59;23.80;87.40
6664;DHT22;58749;48.022;10.922;2022-08-01T15:08:28;23.70;90.30
6664;DHT22;58749;48.022;10.922;2022-08-01T15:10:59;23.50;90.70
6664;DHT22;58749;48.022;10.922;2022-08-01T15:13:28;23.30;90.60
6664;DHT22;58749;48.022;10.922;2022-08-01T15:15:56;23.20;90.50
6664;DHT22;58749;48.022;10.922;2022-08-01T15:18:26;23.10;90.40
6664;DHT22;58749;48.022;10.922;2022-08-01T15:20:54;22.90;90.20
6664;DHT22;58749;48.022;10.922;2022-08-01T15:23:25;22.80;91.90
6664;DHT22;58749;48.022;10.922;2022-08-01T15:25:53;22.60;93.50
6664;DHT22;58749;48.022;10.922;2022-08-01T15:28:22;22.30;96.70
6664;DHT22;58749;48.022;10.922;2022-08-01T15:30:50;21.90;96.80
6664;DHT22;58749;48.022;10.922;2022-08-01T15:33:18;21.70;97.10
6664;DHT22;58749;48.022;10.922;2022-08-01T15:35:48;21.50;97.60
6664;DHT22;58749;48.022;10.922;2022-08-01T15:38:18;21.40;98.00
6664;DHT22;58749;48.022;10.922;2022-08-01T15:40:49;21.20;96.20
6664;DHT22;58749;48.022;10.922;2022-08-01T15:43:17;21.10;96.20
6664;DHT22;58749;48.022;10.922;2022-08-01T15:45:46;21.10;96.00
6664;DHT22;58749;48.022;10.922;2022-08-01T15:48:15;21.10;96.00
6664;DHT22;58749;48.022;10.922;2022-08-01T15:50:43;21.10;95.50
6664;DHT22;58749;48.022;10.922;2022-08-01T15:53:11;21.00;95.80
6664;DHT22;58749;48.022;10.922;2022-08-01T15:55:39;21.00;96.60
6664;DHT22;58749;48.022;10.922;2022-08-01T15:58:19;20.90;96.10
6664;DHT22;58749;48.022;10.922;2022-08-01T16:00:47;21.00;95.80
6664;DHT22;58749;48.022;10.922;2022-08-01T16:03:15;21.10;95.60
6664;DHT22;58749;48.022;10.922;2022-08-01T16:05:43;21.20;96.00